createdAt,value
2023-03-06T00:01:36.323Z,2.1
2023-03-06T00:04:24.208Z,2.1
2023-03-06T00:07:11.985Z,2.1
2023-03-06T00:09:59.923Z,2.1
2023-03-06T00:12:47.706Z,2.1
2023-03-06T00:15:35.511Z,2.2
2023-03-06T00:18:23.305Z,2.1
2023-03-06T00:21:11.212Z,2.1
2023-03-06T00:23:58.843Z,2.1
2023-03-06T00:26:46.627Z,2.1
2023-03-06T00:29:34.274Z,2.1
2023-03-06T00:32:22.141Z,2.1
2023-03-06T00:35:09.956Z,2.1
2023-03-06T00:37:57.819Z,2.1
2023-03-06T00:40:45.449Z,2.1
2023-03-06T00:43:33.170Z,2.1
2023-03-06T00:46:21.052Z,2.1
2023-03-06T00:49:08.847Z,2.1
2023-03-06T00:51:56.544Z,2.1
2023-03-06T00:54:44.551Z,2.1
2023-03-06T00:57:32.491Z,2
2023-03-06T01:00:20.377Z,2
2023-03-06T01:03:08.171Z,2
2023-03-06T01:05:56.104Z,2
2023-03-06T01:08:43.865Z,2
2023-03-06T01:11:31.760Z,2
2023-03-06T01:14:19.497Z,2
2023-03-06T01:17:07.485Z,2
2023-03-06T01:19:55.315Z,2
2023-03-06T01:22:43.131Z,2
2023-03-06T01:25:31.066Z,2
2023-03-06T01:28:18.887Z,2
2023-03-06T01:31:06.470Z,2
2023-03-06T01:33:54.379Z,2
2023-03-06T01:36:42.115Z,1.9
2023-03-06T01:39:30.005Z,1.9
2023-03-06T01:42:17.707Z,1.9
2023-03-06T01:45:05.516Z,1.9
2023-03-06T01:47:53.303Z,1.9
2023-03-06T01:50:41.048Z,1.9
2023-03-06T01:53:28.771Z,1.9
2023-03-06T01:56:16.603Z,1.9
2023-03-06T01:59:04.366Z,1.9
2023-03-06T02:01:52.280Z,1.9
2023-03-06T02:04:39.968Z,1.9
2023-03-06T02:07:27.734Z,1.9
2023-03-06T02:10:15.520Z,1.9
2023-03-06T02:13:03.207Z,1.9
2023-03-06T02:15:50.980Z,1.9
2023-03-06T02:18:38.971Z,1.9
2023-03-06T02:21:26.765Z,1.9
2023-03-06T02:24:14.639Z,1.9
2023-03-06T02:27:02.472Z,1.9
2023-03-06T02:29:50.306Z,1.9
2023-03-06T02:32:38.432Z,1.9
2023-03-06T02:35:26.565Z,1.9
2023-03-06T02:38:14.630Z,1.9
2023-03-06T02:41:02.391Z,1.9
2023-03-06T02:43:50.042Z,1.9
2023-03-06T02:46:37.997Z,1.9
2023-03-06T02:49:26.549Z,1.9
2023-03-06T02:52:14.366Z,1.9
2023-03-06T02:55:02.155Z,1.9
2023-03-06T02:57:50.000Z,1.8
2023-03-06T03:00:37.596Z,1.8
2023-03-06T03:03:26.656Z,1.8
2023-03-06T03:06:14.399Z,1.8
2023-03-06T03:09:02.257Z,1.7
2023-03-06T03:11:49.980Z,1.7
2023-03-06T03:14:37.851Z,1.6
2023-03-06T03:17:25.599Z,1.6
2023-03-06T03:20:13.344Z,1.5
2023-03-06T03:23:01.097Z,1.5
2023-03-06T03:25:48.798Z,1.4
2023-03-06T03:28:36.513Z,1.4
2023-03-06T03:31:24.287Z,1.4
2023-03-06T03:34:12.191Z,1.3
2023-03-06T03:37:00.064Z,1.3
2023-03-06T03:39:47.942Z,1.3
2023-03-06T03:42:35.881Z,1.3
2023-03-06T03:45:23.630Z,1.4
2023-03-06T03:48:11.536Z,1.4
2023-03-06T03:50:59.240Z,1.4
2023-03-06T03:53:46.924Z,1.4
2023-03-06T03:56:34.834Z,1.4
2023-03-06T03:59:23.011Z,1.4
2023-03-06T04:02:11.094Z,1.5
2023-03-06T04:04:59.082Z,1.5
2023-03-06T04:07:47.009Z,1.5
2023-03-06T04:10:34.743Z,1.6
2023-03-06T04:13:22.611Z,1.6
2023-03-06T04:16:10.383Z,1.6
2023-03-06T04:18:58.256Z,1.6
2023-03-06T04:21:46.031Z,1.6
2023-03-06T04:24:33.760Z,1.6
2023-03-06T04:27:21.363Z,1.6
2023-03-06T04:30:09.352Z,1.5
2023-03-06T04:32:57.268Z,1.5
2023-03-06T04:35:45.235Z,1.5
2023-03-06T04:38:33.199Z,1.5
2023-03-06T04:41:21.395Z,1.4
2023-03-06T04:44:09.473Z,1.4
2023-03-06T04:46:57.334Z,1.4
2023-03-06T04:49:45.097Z,1.3
2023-03-06T04:52:32.979Z,1.2
2023-03-06T04:55:20.965Z,1.2
2023-03-06T04:58:08.843Z,1.1
2023-03-06T05:00:56.593Z,1
2023-03-06T05:03:44.650Z,1
2023-03-06T05:06:32.632Z,1
2023-03-06T05:09:20.392Z,0.9
2023-03-06T05:12:08.123Z,0.9
2023-03-06T05:14:55.904Z,0.9
2023-03-06T05:17:43.607Z,1
2023-03-06T05:20:31.578Z,1
2023-03-06T05:23:19.317Z,1
2023-03-06T05:26:07.238Z,1
2023-03-06T05:28:54.879Z,1
2023-03-06T05:31:42.708Z,1
2023-03-06T05:34:30.693Z,1
2023-03-06T05:37:18.608Z,1
2023-03-06T05:40:06.949Z,1
2023-03-06T05:42:56.961Z,1
2023-03-06T05:45:44.647Z,0.9
2023-03-06T05:48:32.539Z,0.8
2023-03-06T05:51:20.265Z,0.8
2023-03-06T05:54:08.132Z,0.8
2023-03-06T05:56:55.980Z,0.8
2023-03-06T05:59:46.247Z,0.7
2023-03-06T06:02:34.335Z,0.7
2023-03-06T06:05:22.400Z,0.7
2023-03-06T06:08:10.235Z,0.7
2023-03-06T06:10:58.247Z,0.8
2023-03-06T06:13:46.013Z,0.8
2023-03-06T06:16:33.835Z,0.8
2023-03-06T06:19:21.723Z,0.8
2023-03-06T06:22:09.609Z,0.9
2023-03-06T06:24:57.324Z,0.9
2023-03-06T06:27:45.261Z,0.9
2023-03-06T06:30:33.165Z,1
2023-03-06T06:33:21.071Z,1
2023-03-06T06:36:08.840Z,1
2023-03-06T06:38:56.573Z,1
2023-03-06T06:42:31.397Z,1
2023-03-06T06:45:26.842Z,1.1
2023-03-06T06:48:16.588Z,1.1
2023-03-06T06:51:07.914Z,1.2
2023-03-06T06:53:56.479Z,1.2
2023-03-06T06:56:44.297Z,1.2
2023-03-06T06:59:44.803Z,1.3
2023-03-06T07:02:32.791Z,1.4
2023-03-06T07:05:32.373Z,1.4
2023-03-06T07:08:20.107Z,1.4
2023-03-06T07:11:07.940Z,1.4
2023-03-06T07:13:55.827Z,1.4
2023-03-06T07:16:43.706Z,1.5
2023-03-06T07:19:31.676Z,1.5
2023-03-06T07:22:19.531Z,1.5
2023-03-06T07:25:07.328Z,1.6
2023-03-06T07:27:55.287Z,1.6
2023-03-06T07:30:43.292Z,1.7
2023-03-06T07:33:31.083Z,1.7
2023-03-06T07:36:19.158Z,1.7
2023-03-06T07:39:07.001Z,1.7
2023-03-06T07:41:54.891Z,1.7
2023-03-06T07:44:42.821Z,1.7
2023-03-06T07:47:30.784Z,1.8
2023-03-06T07:50:18.462Z,1.9
2023-03-06T07:53:06.320Z,1.9
2023-03-06T07:55:54.162Z,2
2023-03-06T07:58:42.101Z,2
2023-03-06T08:01:29.932Z,2
2023-03-06T08:04:17.961Z,2
2023-03-06T08:07:05.765Z,2.1
2023-03-06T08:09:53.721Z,2.2
2023-03-06T08:12:44.570Z,2.2
2023-03-06T08:15:32.377Z,2.3
2023-03-06T08:18:20.195Z,2.3
2023-03-06T08:21:08.201Z,2.3
2023-03-06T08:23:56.189Z,2.3
2023-03-06T08:26:44.260Z,2.3
2023-03-06T08:29:32.419Z,2.3
2023-03-06T08:32:20.501Z,2.3
2023-03-06T08:35:08.763Z,2.3
2023-03-06T08:37:56.695Z,2.3
2023-03-06T08:40:44.645Z,2.2
2023-03-06T08:43:32.954Z,2.2
2023-03-06T08:46:20.904Z,2.1
2023-03-06T08:49:09.002Z,2
2023-03-06T08:51:56.885Z,1.9
2023-03-06T08:54:44.775Z,1.8
2023-03-06T08:57:32.706Z,1.8
2023-03-06T09:00:20.810Z,1.8
2023-03-06T09:03:11.293Z,1.8
2023-03-06T09:05:59.129Z,1.7
2023-03-06T09:08:46.847Z,1.8
2023-03-06T09:11:34.756Z,1.8
2023-03-06T09:14:22.532Z,1.8
2023-03-06T09:17:10.708Z,1.9
2023-03-06T09:19:58.837Z,2.1
2023-03-06T09:22:47.005Z,2.2
2023-03-06T09:25:35.000Z,2.3
2023-03-06T09:28:38.585Z,2.5
2023-03-06T09:31:26.541Z,2.5
2023-03-06T09:34:14.515Z,2.5
2023-03-06T09:37:17.516Z,2.7
2023-03-06T09:40:05.498Z,2.7
2023-03-06T09:42:53.441Z,2.7
2023-03-06T09:45:41.542Z,2.8
2023-03-06T09:48:29.726Z,2.9
2023-03-06T09:51:20.362Z,3
2023-03-06T09:54:08.306Z,3
2023-03-06T09:56:56.345Z,3
2023-03-06T09:59:44.332Z,2.9
2023-03-06T10:02:32.626Z,2.9
2023-03-06T10:05:20.775Z,2.8
2023-03-06T10:08:08.740Z,2.8
2023-03-06T10:10:56.587Z,2.8
2023-03-06T10:13:44.420Z,2.8
2023-03-06T10:16:32.228Z,2.9
2023-03-06T10:19:20.298Z,3.1
2023-03-06T10:22:08.132Z,3.2
2023-03-06T10:24:55.944Z,3.3
2023-03-06T10:27:44.010Z,3.5
2023-03-06T10:30:32.715Z,3.8
2023-03-06T10:33:20.759Z,4
2023-03-06T10:36:08.950Z,4
2023-03-06T10:38:57.006Z,4
2023-03-06T10:41:45.418Z,4
2023-03-06T10:44:34.293Z,4
2023-03-06T10:47:22.179Z,4
2023-03-06T10:50:10.076Z,4
2023-03-06T10:52:57.854Z,4
2023-03-06T10:55:45.781Z,4.5
2023-03-06T10:58:33.663Z,5.6
2023-03-06T11:01:21.525Z,6.9
2023-03-06T11:04:09.540Z,7.9
2023-03-06T11:06:57.421Z,9
2023-03-06T11:09:45.118Z,9.8
2023-03-06T11:12:32.903Z,9.7
2023-03-06T11:15:20.811Z,9
2023-03-06T11:18:08.784Z,8.4
2023-03-06T11:21:00.027Z,8.8
2023-03-06T11:23:47.970Z,9
2023-03-06T11:26:35.746Z,8.6
2023-03-06T11:29:23.909Z,8.6
2023-03-06T11:32:12.011Z,8.4
2023-03-06T11:35:00.323Z,8.5
2023-03-06T11:37:48.168Z,9
2023-03-06T11:40:36.074Z,9.3
2023-03-06T11:43:23.856Z,8.9
2023-03-06T11:46:11.811Z,8.2
2023-03-06T11:48:59.930Z,7.5
2023-03-06T11:51:48.197Z,7.8
2023-03-06T11:54:35.878Z,8.6
2023-03-06T11:57:23.772Z,9.5
2023-03-06T12:00:11.548Z,9.8
2023-03-06T12:03:00.406Z,10
2023-03-06T12:05:48.579Z,10.4
2023-03-06T12:08:36.541Z,10.8
2023-03-06T12:11:24.519Z,10.5
2023-03-06T12:14:12.544Z,9.7
2023-03-06T12:17:00.613Z,8.7
2023-03-06T12:19:48.538Z,8.2
2023-03-06T12:22:36.212Z,8.2
2023-03-06T12:25:23.951Z,8
2023-03-06T12:28:11.682Z,8
2023-03-06T12:30:59.369Z,8.1
2023-03-06T12:33:47.041Z,8.5
2023-03-06T12:36:37.288Z,9.2
2023-03-06T12:39:25.095Z,10
2023-03-06T12:42:22.535Z,10.3
2023-03-06T12:45:11.541Z,10.1
2023-03-06T12:47:59.310Z,9.8
2023-03-06T12:50:47.084Z,9.7
2023-03-06T12:53:34.853Z,9.6
2023-03-06T12:56:22.586Z,9.5
2023-03-06T12:59:10.304Z,9.5
2023-03-06T13:01:58.040Z,9.4
2023-03-06T13:04:45.875Z,9.4
2023-03-06T13:07:33.614Z,9.5
2023-03-06T13:10:21.472Z,9.5
2023-03-06T13:13:09.199Z,9.4
2023-03-06T13:15:56.928Z,9.2
2023-03-06T13:18:44.638Z,9
2023-03-06T13:21:32.229Z,9.1
2023-03-06T13:24:19.993Z,9.6
2023-03-06T13:27:07.672Z,10.5
2023-03-06T13:29:55.459Z,11.4
2023-03-06T13:32:43.497Z,12
2023-03-06T13:35:31.245Z,12.1
2023-03-06T13:38:19.010Z,11.5
2023-03-06T13:41:06.802Z,10.6
2023-03-06T13:43:54.630Z,9.6
2023-03-06T13:46:42.538Z,9
2023-03-06T13:49:30.395Z,8.9
2023-03-06T13:52:18.084Z,9
2023-03-06T13:55:05.757Z,9.3
2023-03-06T13:57:53.341Z,9.5
2023-03-06T14:00:41.070Z,9.7
2023-03-06T14:03:29.029Z,10
2023-03-06T14:06:17.294Z,10.1
2023-03-06T14:09:05.009Z,10.3
2023-03-06T14:11:52.766Z,10.4
2023-03-06T14:14:40.597Z,10.3
2023-03-06T14:17:28.380Z,10
2023-03-06T14:20:16.336Z,9.6
2023-03-06T14:23:04.149Z,9.3
2023-03-06T14:25:51.908Z,9.2
2023-03-06T14:28:42.639Z,9.2
2023-03-06T14:31:30.361Z,8.9
2023-03-06T14:34:18.315Z,8.5
2023-03-06T14:37:05.991Z,8.2
2023-03-06T14:39:53.770Z,7.8
2023-03-06T14:42:41.449Z,7.4
2023-03-06T14:45:29.088Z,7
2023-03-06T14:48:16.815Z,6.8
2023-03-06T14:51:04.659Z,6.6
2023-03-06T14:53:52.505Z,6.4
2023-03-06T14:56:40.238Z,6.4
2023-03-06T14:59:27.945Z,6.5
2023-03-06T15:02:15.942Z,6.7
2023-03-06T15:05:03.614Z,6.8
2023-03-06T15:07:51.525Z,7
2023-03-06T15:10:39.363Z,7
2023-03-06T15:13:27.175Z,7
2023-03-06T15:16:14.890Z,7.2
2023-03-06T15:19:02.786Z,7.5
2023-03-06T15:21:50.574Z,7.8
2023-03-06T15:24:38.200Z,8
2023-03-06T15:27:26.210Z,7.8
2023-03-06T15:30:14.224Z,7.3
2023-03-06T15:33:02.266Z,6.9
2023-03-06T15:35:50.184Z,6.5
2023-03-06T15:38:40.565Z,6.3
2023-03-06T15:41:28.383Z,6.1
2023-03-06T15:44:16.108Z,5.9
2023-03-06T15:47:08.584Z,5.8
2023-03-06T15:49:57.113Z,5.6
2023-03-06T15:52:44.835Z,5.5
2023-03-06T15:55:32.522Z,5.5
2023-03-06T15:58:20.458Z,5.3
2023-03-06T16:01:08.343Z,5.3
2023-03-06T16:03:56.368Z,5.2
2023-03-06T16:06:45.443Z,5.1
2023-03-06T16:09:33.490Z,5
2023-03-06T16:12:21.284Z,5
2023-03-06T16:15:09.098Z,4.7
2023-03-06T16:17:56.970Z,4.4
2023-03-06T16:20:44.784Z,4
2023-03-06T16:23:32.655Z,3.7
2023-03-06T16:26:20.538Z,3.5
2023-03-06T16:29:08.317Z,3.4
2023-03-06T16:31:56.358Z,3.3
2023-03-06T16:34:44.383Z,3.3
2023-03-06T16:37:32.292Z,3.2
2023-03-06T16:40:19.858Z,3.1
2023-03-06T16:43:07.742Z,3.2
2023-03-06T16:45:55.461Z,3.2
2023-03-06T16:48:43.516Z,3.2
2023-03-06T16:51:31.231Z,3.2
2023-03-06T16:54:19.087Z,3.1
2023-03-06T16:57:06.671Z,3.1
2023-03-06T16:59:54.466Z,3.1
2023-03-06T17:02:42.239Z,3
2023-03-06T17:05:30.013Z,3
2023-03-06T17:08:17.729Z,3
2023-03-06T17:11:05.588Z,3.1
2023-03-06T17:13:53.258Z,3
2023-03-06T17:16:41.104Z,3.1
2023-03-06T17:19:29.211Z,3.1
2023-03-06T17:22:16.966Z,3.1
2023-03-06T17:25:04.780Z,3.1
2023-03-06T17:27:52.589Z,3.1
2023-03-06T17:30:40.367Z,3.2
2023-03-06T17:33:28.151Z,3.3
2023-03-06T17:36:16.217Z,3.3
2023-03-06T17:39:04.011Z,3.3
2023-03-06T17:41:51.894Z,3.4
2023-03-06T17:44:39.739Z,3.5
2023-03-06T17:47:27.431Z,3.5
2023-03-06T17:50:15.314Z,3.5
2023-03-06T17:53:03.029Z,3.5
2023-03-06T17:55:50.874Z,3.5
2023-03-06T17:58:40.677Z,3.5
2023-03-06T18:01:28.482Z,3.5
2023-03-06T18:04:16.427Z,3.5
2023-03-06T18:07:04.139Z,3.5
2023-03-06T18:09:51.938Z,3.6
2023-03-06T18:12:39.625Z,3.6
2023-03-06T18:15:27.316Z,3.6
2023-03-06T18:18:15.117Z,3.6
2023-03-06T18:21:02.815Z,3.6
2023-03-06T18:23:50.605Z,3.6
2023-03-06T18:26:38.238Z,3.5
2023-03-06T18:29:25.944Z,3.5
2023-03-06T18:32:13.734Z,3.5
2023-03-06T18:35:01.628Z,3.5
2023-03-06T18:37:49.467Z,3.6
2023-03-06T18:40:37.109Z,3.6
2023-03-06T18:43:24.826Z,3.6
2023-03-06T18:46:12.760Z,3.6
2023-03-06T18:49:00.790Z,3.6
2023-03-06T18:51:48.689Z,3.6
2023-03-06T18:54:36.265Z,3.6
2023-03-06T18:57:24.060Z,3.6
2023-03-06T19:00:11.743Z,3.6
2023-03-06T19:02:59.536Z,3.6
2023-03-06T19:05:47.324Z,3.6
2023-03-06T19:08:35.086Z,3.6
2023-03-06T19:11:22.765Z,3.6
2023-03-06T19:14:10.788Z,3.6
2023-03-06T19:16:58.705Z,3.6
2023-03-06T19:19:46.574Z,3.6
2023-03-06T19:22:34.388Z,3.6
2023-03-06T19:25:22.206Z,3.6
2023-03-06T19:28:09.988Z,3.6
2023-03-06T19:30:57.715Z,3.6
2023-03-06T19:33:45.389Z,3.6
2023-03-06T19:36:33.866Z,3.5
2023-03-06T19:39:21.708Z,3.5
2023-03-06T19:42:09.494Z,3.5
2023-03-06T19:44:57.060Z,3.5
2023-03-06T19:47:44.869Z,3.5
2023-03-06T19:50:32.426Z,3.5
2023-03-06T19:53:20.334Z,3.5
2023-03-06T19:56:08.285Z,3.5
2023-03-06T19:58:56.248Z,3.5
2023-03-06T20:01:44.368Z,3.5
2023-03-06T20:04:32.421Z,3.5
2023-03-06T20:07:20.187Z,3.5
2023-03-06T20:10:07.908Z,3.5
2023-03-06T20:12:55.763Z,3.5
2023-03-06T20:15:43.633Z,3.5
2023-03-06T20:18:31.462Z,3.5
2023-03-06T20:21:19.234Z,3.5
2023-03-06T20:24:07.129Z,3.5
2023-03-06T20:26:54.909Z,3.5
2023-03-06T20:29:42.659Z,3.5
2023-03-06T20:32:30.442Z,3.5
2023-03-06T20:35:18.299Z,3.6
2023-03-06T20:38:05.994Z,3.6
2023-03-06T20:40:53.618Z,3.6
2023-03-06T20:43:41.292Z,3.5
2023-03-06T20:46:29.282Z,3.5
2023-03-06T20:49:17.428Z,3.5
2023-03-06T20:52:05.164Z,3.5
2023-03-06T20:54:52.890Z,3.5
2023-03-06T20:57:40.723Z,3.5
2023-03-06T21:00:28.511Z,3.5
2023-03-06T21:03:16.373Z,3.5
2023-03-06T21:06:04.149Z,3.5
2023-03-06T21:08:51.876Z,3.5
2023-03-06T21:11:39.527Z,3.5
2023-03-06T21:14:27.133Z,3.5
2023-03-06T21:17:14.974Z,3.5
2023-03-06T21:20:02.764Z,3.5
2023-03-06T21:22:50.586Z,3.5
2023-03-06T21:25:38.305Z,3.4
2023-03-06T21:28:26.143Z,3.3
2023-03-06T21:31:14.157Z,3.3
2023-03-06T21:34:04.238Z,3.2
2023-03-06T21:36:53.155Z,3.1
2023-03-06T21:39:40.864Z,3.1
2023-03-06T21:42:28.641Z,2.9
2023-03-06T21:45:16.529Z,2.8
2023-03-06T21:48:04.362Z,2.7
2023-03-06T21:50:52.270Z,2.5
2023-03-06T21:53:40.001Z,2.5
2023-03-06T21:56:27.818Z,2.4
2023-03-06T21:59:15.651Z,2.4
2023-03-06T22:02:03.487Z,2.4
2023-03-06T22:04:51.339Z,2.3
2023-03-06T22:07:39.040Z,2.3
2023-03-06T22:10:26.907Z,2.4
2023-03-06T22:13:14.710Z,2.3
2023-03-06T22:16:02.447Z,2.4
2023-03-06T22:18:50.186Z,2.3
2023-03-06T22:21:37.863Z,2.4
2023-03-06T22:24:25.829Z,2.4
2023-03-06T22:27:13.607Z,2.4
2023-03-06T22:30:01.527Z,2.4
2023-03-06T22:32:49.428Z,2.4
2023-03-06T22:35:37.483Z,2.4
2023-03-06T22:38:25.171Z,2.5
2023-03-06T22:41:12.946Z,2.5
2023-03-06T22:44:00.701Z,2.5
2023-03-06T22:46:48.726Z,2.5
2023-03-06T22:49:36.448Z,2.5
2023-03-06T22:52:24.284Z,2.5
2023-03-06T22:55:11.912Z,2.5
2023-03-06T22:57:59.700Z,2.5
2023-03-06T23:00:47.765Z,2.5
2023-03-06T23:03:35.679Z,2.5
2023-03-06T23:06:23.266Z,2.5
2023-03-06T23:09:10.973Z,2.5
2023-03-06T23:11:58.577Z,2.6
2023-03-06T23:14:46.880Z,2.6
2023-03-06T23:17:34.924Z,2.6
2023-03-06T23:20:22.834Z,2.7
2023-03-06T23:23:10.412Z,2.7
2023-03-06T23:25:58.097Z,2.7
2023-03-06T23:28:45.834Z,2.7
2023-03-06T23:31:33.990Z,2.7
2023-03-06T23:34:22.146Z,2.8
2023-03-06T23:37:10.762Z,2.8
2023-03-06T23:39:58.552Z,2.8
2023-03-06T23:42:46.493Z,2.8
2023-03-06T23:45:34.215Z,2.9
2023-03-06T23:48:22.159Z,2.9
2023-03-06T23:51:09.968Z,2.9
2023-03-06T23:53:58.145Z,2.9
2023-03-06T23:56:45.910Z,2.9
2023-03-06T23:59:33.731Z,2.9
